Time;durP1;ratioP1;P1;durP2;ratioP2;P2;SDS_P1;SDS_P2;PMS_P1;PMS_P2;Temp;Humidity;BMP_temperature;BMP_pressure;BME280_temperature;BME280_humidity;BME280_pressure;Samples;Min_cycle;Max_cycle;Signal;HPM_P1;HPM_P2
2022/06/18 00:00:08;;;;;;;1.63;0.88;;;25.70;62.80;;;;;;5055321;28;20025;-70
2022/06/18 00:02:33;;;;;;;2.08;0.80;;;25.70;62.80;;;;;;5054310;28;20029;-70
2022/06/18 00:04:59;;;;;;;1.27;1.00;;;25.70;62.80;;;;;;5036601;28;20369;-70
2022/06/18 00:07:25;;;;;;;1.55;0.93;;;25.70;62.70;;;;;;5035545;28;20030;-70
2022/06/18 00:09:55;;;;;;;0.73;0.73;;;25.70;62.70;;;;;;5036020;28;20100;-70
2022/06/18 00:15:21;;;;;;;1.35;1.10;;;25.70;62.70;;;;;;5039939;28;20036;-70
2022/06/18 00:17:46;;;;;;;1.88;0.88;;;25.70;62.70;;;;;;5054048;28;20029;-70
2022/06/18 00:20:13;;;;;;;1.52;1.00;;;25.70;62.70;;;;;;5055027;28;20025;-70
2022/06/18 00:22:39;;;;;;;1.60;0.80;;;25.70;62.70;;;;;;5052965;28;20028;-70
2022/06/18 00:25:23;;;;;;;1.00;0.90;;;25.70;62.60;;;;;;5053770;28;20029;-70
2022/06/18 00:27:49;;;;;;;2.30;1.02;;;25.70;62.60;;;;;;5037602;28;20025;-70
2022/06/18 00:30:17;;;;;;;1.17;1.08;;;25.60;62.50;;;;;;5053579;28;20031;-70
2022/06/18 00:32:42;;;;;;;0.95;0.80;;;25.60;62.50;;;;;;5053795;28;20103;-70
2022/06/18 00:35:08;;;;;;;1.95;1.05;;;25.60;62.50;;;;;;5054598;28;20064;-70
2022/06/18 00:37:34;;;;;;;1.23;1.00;;;25.60;62.50;;;;;;5055140;28;20124;-70
2022/06/18 00:40:00;;;;;;;2.30;0.88;;;25.60;62.60;;;;;;5054837;28;20483;-70
2022/06/18 00:42:29;;;;;;;2.20;1.15;;;25.70;62.60;;;;;;5053343;28;20475;-70
2022/06/18 00:44:55;;;;;;;1.52;0.95;;;25.70;62.60;;;;;;5053146;28;20056;-70
2022/06/18 00:47:33;;;;;;;2.08;0.90;;;25.70;62.70;;;;;;5036899;28;20025;-70
2022/06/18 00:50:05;;;;;;;2.83;1.00;;;25.60;62.60;;;;;;5054689;28;20029;-70
2022/06/18 00:52:41;;;;;;;1.80;0.95;;;25.70;62.60;;;;;;5053241;28;20029;-70
2022/06/18 00:55:18;;;;;;;1.00;0.90;;;25.60;62.60;;;;;;5053088;28;20479;-70
2022/06/18 00:57:58;;;;;;;1.20;1.08;;;25.60;62.60;;;;;;5052865;28;20024;-70
2022/06/18 01:00:24;;;;;;;1.33;1.00;;;25.60;62.60;;;;;;5038221;28;20029;-70
2022/06/18 01:02:52;;;;;;;2.63;0.77;;;25.60;62.60;;;;;;5052373;28;20017;-70
2022/06/18 01:05:26;;;;;;;1.10;1.00;;;25.60;63.50;;;;;;5033106;28;20033;-70
2022/06/18 01:07:56;;;;;;;1.42;1.10;;;25.60;62.50;;;;;;5033116;28;20109;-70
2022/06/18 01:10:49;;;;;;;3.08;1.00;;;25.60;62.60;;;;;;5040327;28;20151;-70
2022/06/18 01:13:18;;;;;;;0.90;0.80;;;25.60;62.50;;;;;;5053688;28;20128;-70
2022/06/18 01:15:44;;;;;;;0.95;0.90;;;25.60;62.40;;;;;;5020140;28;20396;-70
2022/06/18 01:18:10;;;;;;;3.67;1.05;;;25.60;62.40;;;;;;5052764;28;20025;-70
2022/06/18 01:21:01;;;;;;;1.88;1.00;;;25.60;63.40;;;;;;5052723;28;20021;-70
2022/06/18 01:23:43;;;;;;;1.05;0.88;;;25.60;62.40;;;;;;5036931;28;20028;-70
2022/06/18 01:26:09;;;;;;;1.23;1.10;;;25.60;62.50;;;;;;5037819;28;20017;-70
2022/06/18 01:28:34;;;;;;;1.00;1.00;;;25.60;62.40;;;;;;5052692;28;20448;-70
2022/06/18 01:31:00;;;;;;;11.77;1.60;;;25.60;62.40;;;;;;5053571;28;20481;-70
2022/06/18 01:33:26;;;;;;;2.15;1.00;;;25.60;62.30;;;;;;5035932;28;20051;-70
2022/06/18 01:35:52;;;;;;;2.17;0.90;;;25.60;62.30;;;;;;5052632;28;20028;-70
2022/06/18 01:38:18;;;;;;;1.55;0.95;;;25.60;62.40;;;;;;5035664;28;20032;-70
2022/06/18 01:40:51;;;;;;;1.80;0.85;;;25.60;62.50;;;;;;5052090;28;20025;-70
2022/06/18 01:43:18;;;;;;;1.50;1.02;;;25.60;62.40;;;;;;5052224;28;20056;-70
2022/06/18 01:45:44;;;;;;;0.90;0.90;;;25.60;62.40;;;;;;5052214;28;20044;-70
2022/06/18 01:48:16;;;;;;;0.80;0.80;;;25.60;62.10;;;;;;5052336;28;20380;-70
2022/06/18 01:51:13;;;;;;;1.83;1.02;;;25.60;62.50;;;;;;5053602;28;20092;-70
2022/06/18 01:54:00;;;;;;;2.00;1.00;;;25.60;62.40;;;;;;5051966;28;20115;-70
2022/06/18 01:56:31;;;;;;;3.15;1.05;;;25.60;62.60;;;;;;5051896;28;20033;-70
2022/06/18 01:59:02;;;;;;;0.95;0.95;;;25.60;62.60;;;;;;5052039;28;20115;-70
2022/06/18 02:01:29;;;;;;;2.03;1.20;;;25.60;62.40;;;;;;5036085;28;20036;-70
2022/06/18 02:03:57;;;;;;;1.42;1.05;;;25.60;62.30;;;;;;5025706;28;20168;-70
2022/06/18 02:06:24;;;;;;;1.13;1.02;;;25.60;62.50;;;;;;5031882;28;20151;-70
2022/06/18 02:08:49;;;;;;;1.98;1.00;;;25.60;62.30;;;;;;5031821;28;20036;-70
2022/06/18 02:11:15;;;;;;;1.00;1.00;;;25.60;62.30;;;;;;5045141;28;20033;-70
2022/06/18 02:13:48;;;;;;;1.73;1.30;;;25.60;62.30;;;;;;5035295;28;20124;-70
2022/06/18 02:16:25;;;;;;;1.70;1.00;;;25.60;62.30;;;;;;5051742;28;20024;-70
2022/06/18 02:18:50;;;;;;;1.20;1.10;;;25.60;62.30;;;;;;5035212;28;20032;-70
2022/06/18 02:21:17;;;;;;;1.10;0.98;;;25.60;62.20;;;;;;5051572;28;20028;-70
2022/06/18 02:23:42;;;;;;;1.55;1.08;;;25.60;62.20;;;;;;5052676;28;20029;-70
2022/06/18 02:26:08;;;;;;;1.92;1.27;;;25.60;62.10;;;;;;5051463;28;20044;-70
2022/06/18 02:28:39;;;;;;;1.20;1.02;;;25.60;62.10;;;;;;5051511;28;20036;-70
2022/06/18 02:31:05;;;;;;;0.93;0.93;;;25.60;62.10;;;;;;5035261;28;20043;-70
2022/06/18 02:33:40;;;;;;;1.20;1.10;;;25.60;62.10;;;;;;5051491;28;20032;-70
2022/06/18 02:36:20;;;;;;;1.52;1.10;;;25.60;62.00;;;;;;5035195;28;20060;-70
2022/06/18 02:38:46;;;;;;;1.60;1.30;;;25.50;61.90;;;;;;5051406;28;20067;-70
2022/06/18 02:41:12;;;;;;;1.70;0.90;;;25.60;62.00;;;;;;5034663;28;20496;-70
2022/06/18 02:43:39;;;;;;;3.33;1.23;;;25.50;61.80;;;;;;5052212;28;20075;-70
2022/06/18 02:46:05;;;;;;;0.88;0.88;;;25.50;61.90;;;;;;5050935;28;20036;-70
2022/06/18 02:48:31;;;;;;;2.05;0.98;;;25.50;63.10;;;;;;5051364;28;20094;-70
2022/06/18 02:50:58;;;;;;;1.50;1.08;;;25.50;62.00;;;;;;5034489;28;20464;-70
2022/06/18 02:53:24;;;;;;;0.73;0.73;;;25.50;61.90;;;;;;5050887;28;20017;-70
2022/06/18 02:55:52;;;;;;;1.55;1.02;;;25.50;62.00;;;;;;5052377;28;20104;-70
2022/06/18 02:58:22;;;;;;;0.90;0.88;;;25.50;61.90;;;;;;5052264;28;20025;-70
2022/06/18 03:00:53;;;;;;;0.95;0.90;;;25.50;62.00;;;;;;5051170;28;20044;-70
2022/06/18 03:03:19;;;;;;;1.25;0.90;;;25.50;62.00;;;;;;5030560;28;20105;-70
2022/06/18 03:05:44;;;;;;;2.15;0.88;;;25.50;62.20;;;;;;5031047;28;20025;-70
2022/06/18 03:08:10;;;;;;;0.80;0.80;;;25.50;61.90;;;;;;5030871;28;20033;-70
2022/06/18 03:13:20;;;;;;;1.15;1.05;;;25.50;62.20;;;;;;5051199;28;20114;-70
2022/06/18 03:15:46;;;;;;;1.15;1.08;;;25.50;61.90;;;;;;5051081;28;20060;-70
2022/06/18 03:18:12;;;;;;;1.85;1.10;;;25.50;61.90;;;;;;5051948;28;20495;-70
2022/06/18 03:21:02;;;;;;;1.10;1.00;;;25.50;61.90;;;;;;5034304;28;20051;-70
2022/06/18 03:23:28;;;;;;;1.70;1.00;;;25.50;61.90;;;;;;5051907;28;20048;-70
2022/06/18 03:25:54;;;;;;;1.20;1.00;;;25.50;61.90;;;;;;5050947;28;20053;-70
2022/06/18 03:28:20;;;;;;;1.45;0.90;;;25.50;62.00;;;;;;5034289;28;20029;-70
2022/06/18 03:30:46;;;;;;;1.15;1.15;;;25.50;61.90;;;;;;5051956;28;20036;-70
2022/06/18 03:33:12;;;;;;;0.90;0.90;;;25.50;62.10;;;;;;5051724;28;20025;-70
2022/06/18 03:35:43;;;;;;;1.13;1.02;;;25.50;61.90;;;;;;5034315;28;20049;-70
2022/06/18 03:38:10;;;;;;;1.02;1.00;;;25.50;61.90;;;;;;5034064;28;20384;-70
2022/06/18 03:40:35;;;;;;;1.15;1.05;;;25.50;62.00;;;;;;5050731;28;20028;-70
2022/06/18 03:43:01;;;;;;;1.08;0.95;;;25.50;62.00;;;;;;5050598;28;20029;-70
2022/06/18 03:45:28;;;;;;;0.75;0.75;;;25.50;62.00;;;;;;5051566;28;20426;-70
2022/06/18 03:47:53;;;;;;;1.48;1.10;;;25.50;62.00;;;;;;5050713;28;20021;-70
2022/06/18 03:50:20;;;;;;;1.95;1.23;;;25.50;61.90;;;;;;5050279;28;20025;-70
2022/06/18 03:52:45;;;;;;;1.20;1.00;;;25.50;61.90;;;;;;5050596;28;20100;-70
2022/06/18 03:55:14;;;;;;;1.05;0.90;;;25.50;61.90;;;;;;5051586;28;20100;-70
2022/06/18 03:57:40;;;;;;;1.17;1.08;;;25.50;62.00;;;;;;5054383;28;20035;-70
2022/06/18 04:00:07;;;;;;;1.58;0.90;;;25.50;62.20;;;;;;5055438;28;20028;-70
2022/06/18 04:02:33;;;;;;;1.00;1.00;;;25.50;62.00;;;;;;5037565;28;20082;-70
2022/06/18 04:04:59;;;;;;;1.20;1.10;;;25.50;61.90;;;;;;5035353;28;20046;-70
2022/06/18 04:07:24;;;;;;;1.65;1.05;;;25.50;61.90;;;;;;5035432;28;20154;-70
2022/06/18 04:09:53;;;;;;;1.23;1.00;;;25.50;62.00;;;;;;5035869;28;20037;-70
2022/06/18 04:12:20;;;;;;;0.90;0.90;;;25.50;62.00;;;;;;5055029;28;20017;-70
2022/06/18 04:14:45;;;;;;;0.70;0.70;;;25.50;61.80;;;;;;5055293;28;20029;-70
2022/06/18 04:17:15;;;;;;;1.05;1.00;;;25.50;62.00;;;;;;5053832;28;20497;-70
2022/06/18 04:19:40;;;;;;;1.00;1.00;;;25.50;62.10;;;;;;5037101;28;20017;-70
2022/06/18 04:22:06;;;;;;;1.00;1.00;;;25.50;62.00;;;;;;5055247;28;20032;-70
2022/06/18 04:24:32;;;;;;;1.08;0.98;;;25.50;61.90;;;;;;5054742;28;20021;-70
2022/06/18 04:26:58;;;;;;;0.80;0.80;;;25.50;61.90;;;;;;5054999;28;20075;-70
2022/06/18 04:29:24;;;;;;;1.02;1.02;;;25.50;62.00;;;;;;5053790;28;20021;-70
2022/06/18 04:31:50;;;;;;;1.00;0.90;;;25.50;62.00;;;;;;5054767;28;20395;-70
2022/06/18 04:34:16;;;;;;;0.95;0.95;;;25.50;62.00;;;;;;5053360;28;20096;-70
2022/06/18 04:36:41;;;;;;;1.58;1.10;;;25.50;62.00;;;;;;5054855;28;20475;-70
2022/06/18 04:39:07;;;;;;;1.65;0.90;;;25.50;62.00;;;;;;5054716;28;20025;-70
2022/06/18 04:41:33;;;;;;;2.00;1.33;;;25.50;62.00;;;;;;5053420;28;20049;-70
2022/06/18 04:43:59;;;;;;;1.25;0.90;;;25.40;61.90;;;;;;5053440;28;20053;-70
2022/06/18 04:46:24;;;;;;;1.85;1.00;;;25.40;61.90;;;;;;5019991;28;20099;-70
2022/06/18 04:48:50;;;;;;;1.70;1.00;;;25.40;61.90;;;;;;5053319;28;20483;-70
2022/06/18 04:51:16;;;;;;;1.15;1.02;;;25.40;61.70;;;;;;5054274;28;20119;-70
2022/06/18 04:53:41;;;;;;;1.05;1.00;;;25.40;61.70;;;;;;5054498;28;20067;-70
2022/06/18 04:56:07;;;;;;;0.95;0.95;;;25.40;61.90;;;;;;5054460;28;20045;-70
2022/06/18 04:58:33;;;;;;;1.40;1.05;;;25.50;61.90;;;;;;5054208;28;20025;-70
2022/06/18 05:00:59;;;;;;;1.33;1.10;;;25.50;61.90;;;;;;5054319;28;20027;-70
2022/06/18 05:03:25;;;;;;;2.03;1.00;;;25.50;61.90;;;;;;5030838;28;20026;-70
2022/06/18 05:05:51;;;;;;;1.35;1.10;;;25.40;61.80;;;;;;5034252;28;20018;-70
2022/06/18 05:08:17;;;;;;;1.80;1.10;;;25.40;61.90;;;;;;5032652;28;20034;-70
2022/06/18 05:10:42;;;;;;;0.90;0.90;;;25.40;61.90;;;;;;5043101;28;20017;-70
2022/06/18 05:13:08;;;;;;;2.10;1.10;;;25.40;61.80;;;;;;5052953;28;20060;-70
2022/06/18 05:15:34;;;;;;;1.70;1.20;;;25.40;61.90;;;;;;5054048;28;21097;-70
2022/06/18 05:18:00;;;;;;;2.70;0.90;;;25.40;61.90;;;;;;5052708;28;20025;-70
2022/06/18 05:20:26;;;;;;;1.20;1.10;;;25.40;61.80;;;;;;5052678;28;20032;-70
2022/06/18 05:22:51;;;;;;;1.15;1.05;;;25.40;62.00;;;;;;5053887;28;20419;-70
2022/06/18 05:25:17;;;;;;;1.10;1.00;;;25.40;61.90;;;;;;5053855;28;20032;-70
2022/06/18 05:27:44;;;;;;;1.20;0.82;;;25.40;61.90;;;;;;5052645;28;20107;-70
2022/06/18 05:30:13;;;;;;;0.90;0.90;;;25.40;62.00;;;;;;5052523;28;20021;-70
2022/06/18 05:32:39;;;;;;;1.15;0.90;;;25.40;62.00;;;;;;5053605;28;20171;-70
2022/06/18 05:35:05;;;;;;;1.83;1.20;;;25.40;62.00;;;;;;5052352;28;20562;-70
2022/06/18 05:37:32;;;;;;;1.20;1.02;;;25.40;62.00;;;;;;5051359;28;20040;-69
2022/06/18 05:39:58;;;;;;;1.10;1.00;;;25.40;62.10;;;;;;5034743;28;20044;-69
2022/06/18 05:42:24;;;;;;;7.07;1.10;;;25.40;62.10;;;;;;5052114;28;20036;-69
2022/06/18 05:44:50;;;;;;;1.08;1.00;;;25.40;62.00;;;;;;5050337;28;20028;-70
2022/06/18 05:47:20;;;;;;;3.10;1.10;;;25.40;62.00;;;;;;5050733;28;20037;-70
2022/06/18 05:49:46;;;;;;;2.05;1.27;;;25.40;62.00;;;;;;5033221;28;20025;-69
2022/06/18 05:52:12;;;;;;;1.10;1.00;;;25.40;61.90;;;;;;5052460;28;20032;-70
2022/06/18 05:54:37;;;;;;;3.55;1.17;;;25.40;62.20;;;;;;5051102;28;20450;-69
2022/06/18 05:57:03;;;;;;;3.88;1.40;;;25.40;62.20;;;;;;5052302;28;20081;-70
2022/06/18 05:59:29;;;;;;;3.47;1.20;;;25.40;62.10;;;;;;5052199;28;20554;-70
2022/06/18 06:01:56;;;;;;;3.70;1.10;;;25.40;62.20;;;;;;5050919;28;20112;-70
2022/06/18 06:04:25;;;;;;;3.35;1.05;;;25.40;62.00;;;;;;5047409;28;20025;-70
2022/06/18 06:06:51;;;;;;;3.60;1.20;;;25.40;62.00;;;;;;5050875;28;20111;-70
2022/06/18 06:11:28;;;;;;;1.63;1.20;;;25.40;62.10;;;;;;5052147;28;20116;-70
2022/06/18 06:12:03;;;;;;;1.75;1.20;;;25.40;62.20;;;;;;5051316;28;20043;-70
2022/06/18 06:14:29;;;;;;;1.10;1.05;;;25.40;62.10;;;;;;5051842;28;20356;-69
2022/06/18 06:16:57;;;;;;;2.08;1.08;;;25.40;62.10;;;;;;5051665;28;20035;-70
2022/06/18 06:19:22;;;;;;;2.90;1.17;;;25.40;62.10;;;;;;5049266;28;20013;-70
2022/06/18 06:21:48;;;;;;;1.10;1.00;;;25.40;62.00;;;;;;5051948;28;20020;-70
2022/06/18 06:24:14;;;;;;;2.80;1.10;;;25.40;62.00;;;;;;5051844;28;20017;-70
2022/06/18 06:26:39;;;;;;;1.42;1.13;;;25.40;62.00;;;;;;5051824;28;20029;-70
2022/06/18 06:29:05;;;;;;;2.40;1.05;;;25.40;62.10;;;;;;5051725;28;20407;-70
2022/06/18 06:31:31;;;;;;;1.70;1.05;;;25.40;62.00;;;;;;5051355;28;20040;-70
2022/06/18 06:33:56;;;;;;;2.50;1.17;;;25.40;61.90;;;;;;5051739;28;20021;-70
2022/06/18 06:36:22;;;;;;;2.45;1.00;;;25.40;62.00;;;;;;5051592;28;20021;-69
2022/06/18 06:38:48;;;;;;;2.55;1.15;;;25.40;62.00;;;;;;5051624;28;20021;-70
2022/06/18 06:41:21;;;;;;;2.42;1.10;;;25.40;62.00;;;;;;5051584;28;20028;-70
2022/06/18 06:43:47;;;;;;;2.60;1.30;;;25.40;62.00;;;;;;5034698;28;20008;-69
2022/06/18 06:46:13;;;;;;;3.75;1.38;;;25.40;62.00;;;;;;5049752;28;20405;-69
2022/06/18 06:48:39;;;;;;;3.38;1.08;;;25.30;61.90;;;;;;5050238;28;20150;-70
2022/06/18 06:51:11;;;;;;;2.22;1.08;;;25.40;62.00;;;;;;5051489;28;20108;-70
2022/06/18 06:53:37;;;;;;;2.72;1.33;;;25.40;62.00;;;;;;5034163;28;20033;-70
2022/06/18 06:58:47;;;;;;;2.42;1.17;;;25.40;62.00;;;;;;5050087;28;20028;-70
2022/06/18 07:01:12;;;;;;;1.10;0.90;;;25.30;61.90;;;;;;5050263;28;20017;-70
2022/06/18 07:03:38;;;;;;;4.97;1.50;;;25.40;62.00;;;;;;5033213;28;20366;-69
2022/06/18 07:06:04;;;;;;;4.32;3.67;;;25.40;62.00;;;;;;5051440;28;20029;-70
2022/06/18 07:08:30;;;;;;;8.05;5.00;;;25.30;60.40;;;;;;5050633;28;20029;-70
2022/06/18 07:10:56;;;;;;;8.55;5.65;;;25.20;59.90;;;;;;5033187;28;20380;-70
2022/06/18 07:13:22;;;;;;;10.55;5.50;;;25.20;59.80;;;;;;5050907;28;20040;-70
2022/06/18 07:15:47;;;;;;;8.55;5.15;;;25.10;59.70;;;;;;5051177;28;20399;-70
2022/06/18 07:18:21;;;;;;;7.43;4.40;;;25.10;60.00;;;;;;5033285;28;20147;-70
2022/06/18 07:20:47;;;;;;;12.65;4.65;;;25.10;60.00;;;;;;5032567;28;20086;-70
2022/06/18 07:23:13;;;;;;;8.00;4.93;;;25.00;60.00;;;;;;5049927;28;20033;-70
2022/06/18 07:25:39;;;;;;;12.27;5.10;;;25.00;59.80;;;;;;5051115;28;20025;-70
2022/06/18 07:28:05;;;;;;;7.93;5.13;;;25.00;59.60;;;;;;5050926;28;20036;-70
2022/06/18 07:30:31;;;;;;;8.93;5.22;;;25.00;59.60;;;;;;5049466;28;20705;-72
2022/06/18 07:32:56;;;;;;;8.82;3.80;;;25.00;59.70;;;;;;5053733;28;20514;-72
2022/06/18 07:35:27;;;;;;;9.27;4.18;;;25.10;60.20;;;;;;5053922;28;20021;-72
2022/06/18 07:37:54;;;;;;;7.22;3.38;;;25.20;60.10;;;;;;5037347;28;20021;-72
2022/06/18 07:40:20;;;;;;;9.63;3.42;;;25.30;59.60;;;;;;5054000;28;20017;-72
2022/06/18 07:42:46;;;;;;;9.80;3.45;;;25.30;59.40;;;;;;5053556;28;20028;-72
2022/06/18 07:45:17;;;;;;;6.35;3.65;;;25.40;59.40;;;;;;5053443;28;20099;-72
2022/06/18 07:47:45;;;;;;;5.40;3.30;;;25.40;59.30;;;;;;5036877;28;20021;-72
2022/06/18 07:50:11;;;;;;;9.02;2.83;;;25.50;59.40;;;;;;5054713;28;20070;-73
2022/06/18 07:52:36;;;;;;;6.15;3.38;;;25.50;59.30;;;;;;5053541;28;20043;-72
2022/06/18 07:55:03;;;;;;;4.63;3.00;;;25.50;59.10;;;;;;5054763;28;20476;-72
2022/06/18 07:57:29;;;;;;;7.30;3.35;;;25.60;59.20;;;;;;5053178;28;20013;-72
2022/06/18 07:59:56;;;;;;;7.45;2.97;;;25.60;59.20;;;;;;5054721;28;20032;-72
2022/06/18 08:02:22;;;;;;;7.25;2.72;;;25.60;59.00;;;;;;5054557;28;20028;-72
2022/06/18 08:04:47;;;;;;;5.28;2.75;;;25.70;58.90;;;;;;5054743;28;20039;-72
2022/06/18 08:07:13;;;;;;;7.68;3.15;;;25.70;58.90;;;;;;5054563;28;20051;-72
2022/06/18 08:09:38;;;;;;;6.53;3.00;;;25.70;58.90;;;;;;5054149;28;20033;-72
2022/06/18 08:12:05;;;;;;;6.55;2.40;;;25.80;58.70;;;;;;5054263;28;20363;-72
2022/06/18 08:14:30;;;;;;;5.38;2.42;;;25.80;58.70;;;;;;5051061;28;20081;-72
2022/06/18 08:16:56;;;;;;;8.63;3.13;;;25.80;58.70;;;;;;5036392;28;20477;-72
2022/06/18 08:19:22;;;;;;;5.82;2.60;;;25.80;58.70;;;;;;5054175;28;20021;-73
2022/06/18 08:21:47;;;;;;;6.45;2.55;;;25.90;58.70;;;;;;5054148;28;20166;-72
2022/06/18 08:24:16;;;;;;;6.75;2.92;;;25.90;58.50;;;;;;5036398;28;20062;-72
2022/06/18 08:26:42;;;;;;;5.75;2.50;;;25.90;58.50;;;;;;5052748;28;20025;-72
2022/06/18 08:29:10;;;;;;;4.38;2.22;;;26.00;58.50;;;;;;5052727;28;20021;-72
2022/06/18 08:31:36;;;;;;;6.28;2.42;;;26.00;58.60;;;;;;5036315;28;20029;-72
2022/06/18 08:34:02;;;;;;;5.15;2.30;;;26.00;58.40;;;;;;5054033;28;20049;-72
2022/06/18 08:36:27;;;;;;;5.22;2.20;;;26.00;58.40;;;;;;5053960;28;20033;-72
2022/06/18 08:38:53;;;;;;;7.38;2.33;;;26.00;58.30;;;;;;5035173;28;20064;-72
2022/06/18 08:41:43;;;;;;;4.63;2.05;;;26.10;58.20;;;;;;5035893;28;20036;-72
2022/06/18 08:44:39;;;;;;;6.30;2.55;;;26.10;58.20;;;;;;5052163;28;20024;-74
2022/06/18 08:47:10;;;;;;;5.30;2.40;;;26.10;58.20;;;;;;5051936;28;20056;-74
2022/06/18 08:50:10;;;;;;;5.40;2.22;;;26.20;58.30;;;;;;5054735;28;20031;-74
2022/06/18 08:52:51;;;;;;;3.83;1.90;;;26.10;58.20;;;;;;5053841;28;20497;-75
2022/06/18 08:55:41;;;;;;;6.72;2.30;;;26.10;58.20;;;;;;5044888;28;20029;-75
2022/06/18 08:58:28;;;;;;;4.53;2.38;;;26.20;58.20;;;;;;5052612;28;20056;-75
2022/06/18 09:01:05;;;;;;;3.47;2.05;;;26.20;58.20;;;;;;5052804;28;20019;-75
2022/06/18 09:03:31;;;;;;;4.43;2.00;;;26.20;58.10;;;;;;5032747;28;20407;-75
2022/06/18 09:06:22;;;;;;;4.53;1.90;;;26.20;58.00;;;;;;5032945;28;20029;-74
2022/06/18 09:09:12;;;;;;;2.35;1.73;;;26.20;58.00;;;;;;5016167;28;20033;-73
2022/06/18 09:11:47;;;;;;;7.53;2.10;;;26.30;58.00;;;;;;5047411;28;20035;-72
2022/06/18 09:14:22;;;;;;;4.90;2.00;;;26.30;58.30;;;;;;5033231;28;20507;-72
2022/06/18 09:17:21;;;;;;;2.40;1.77;;;26.20;58.20;;;;;;5017969;28;20534;-72
2022/06/18 09:19:55;;;;;;;3.60;2.00;;;26.10;58.40;;;;;;5034276;28;20080;-72
2022/06/18 09:22:20;;;;;;;2.10;1.65;;;26.20;58.60;;;;;;5018929;28;20144;-72
2022/06/18 09:24:48;;;;;;;2.63;1.77;;;26.10;58.70;;;;;;5034462;28;20059;-72
2022/06/18 09:27:38;;;;;;;2.78;1.67;;;26.10;58.60;;;;;;5018228;28;20021;-72
2022/06/18 09:30:28;;;;;;;3.72;2.05;;;26.10;58.70;;;;;;5031334;28;20072;-72
2022/06/18 09:32:57;;;;;;;4.40;2.08;;;26.10;58.80;;;;;;5033716;28;20108;-72
2022/06/18 09:35:26;;;;;;;4.50;2.20;;;26.10;58.70;;;;;;5043743;28;20044;-72
2022/06/18 09:38:00;;;;;;;4.18;1.92;;;26.10;58.80;;;;;;5050962;28;20028;-73
2022/06/18 09:40:38;;;;;;;6.05;2.70;;;26.00;58.80;;;;;;5035990;28;20472;-73
2022/06/18 09:43:14;;;;;;;5.50;2.25;;;26.10;58.90;;;;;;5034707;28;20028;-73
2022/06/18 09:45:46;;;;;;;6.65;2.22;;;26.00;58.90;;;;;;5051342;28;20135;-73
2022/06/18 09:48:13;;;;;;;7.65;2.45;;;26.00;58.90;;;;;;5051144;28;20025;-73
2022/06/18 09:51:01;;;;;;;8.10;2.17;;;26.00;58.80;;;;;;5053435;28;20150;-72
2022/06/18 09:53:32;;;;;;;6.95;2.03;;;26.00;58.80;;;;;;5052721;28;20112;-72
2022/06/18 09:56:07;;;;;;;5.90;2.35;;;26.00;58.80;;;;;;5051565;28;20538;-72
2022/06/18 09:58:46;;;;;;;6.18;2.65;;;26.00;58.80;;;;;;5051987;28;20020;-72
2022/06/18 10:01:20;;;;;;;9.48;2.45;;;26.00;58.80;;;;;;5053159;28;20025;-72
2022/06/18 10:09:18;;;;;;;7.65;2.40;;;26.00;58.80;;;;;;5032133;28;20075;-72
2022/06/18 10:11:44;;;;;;;8.45;2.58;;;26.00;58.90;;;;;;5049010;28;20028;-72
2022/06/18 10:14:19;;;;;;;4.55;2.15;;;26.00;58.80;;;;;;5051751;28;20070;-72
2022/06/18 10:16:54;;;;;;;4.88;2.50;;;26.00;59.00;;;;;;5035429;28;20026;-72
2022/06/18 10:19:37;;;;;;;4.93;2.42;;;26.00;58.90;;;;;;5051834;28;20025;-72
2022/06/18 10:22:22;;;;;;;5.65;2.20;;;26.00;59.00;;;;;;5036768;28;20025;-72
2022/06/18 10:25:22;;;;;;;7.00;2.17;;;26.00;59.00;;;;;;5052726;28;20138;-72
2022/06/18 10:27:56;;;;;;;4.00;2.20;;;26.00;59.00;;;;;;5051569;28;20056;-72
2022/06/18 10:30:45;;;;;;;3.47;2.28;;;26.00;59.00;;;;;;5035163;28;20028;-72
2022/06/18 10:33:23;;;;;;;7.55;2.65;;;26.00;58.90;;;;;;5051396;28;20064;-72
2022/06/18 10:35:58;;;;;;;7.22;2.30;;;26.00;58.90;;;;;;5052357;28;20503;-72
2022/06/18 10:38:51;;;;;;;7.53;2.55;;;26.00;58.80;;;;;;5059991;28;20058;-72
2022/06/18 10:41:22;;;;;;;4.20;2.42;;;26.00;58.80;;;;;;5072496;28;20039;-72
2022/06/18 10:43:50;;;;;;;6.47;2.45;;;26.00;58.80;;;;;;5071227;28;20115;-72
2022/06/18 10:46:17;;;;;;;7.47;2.38;;;26.00;58.80;;;;;;5072297;28;20037;-72
2022/06/18 10:48:54;;;;;;;6.88;2.13;;;26.00;58.80;;;;;;5071214;28;20044;-72
2022/06/18 10:51:23;;;;;;;5.70;2.30;;;26.00;58.80;;;;;;5071300;28;20036;-72
2022/06/18 10:54:00;;;;;;;7.97;2.50;;;26.00;58.90;;;;;;5071455;28;20052;-72
2022/06/18 10:56:29;;;;;;;4.65;1.92;;;26.00;58.80;;;;;;5054917;28;20021;-72
2022/06/18 10:58:56;;;;;;;5.43;2.30;;;26.00;58.80;;;;;;5070982;28;20107;-72
2022/06/18 11:01:31;;;;;;;6.57;2.40;;;26.00;58.90;;;;;;5071162;28;20012;-72
2022/06/18 11:03:58;;;;;;;6.00;2.35;;;26.00;58.80;;;;;;5052439;28;20026;-72
2022/06/18 11:06:24;;;;;;;4.97;2.70;;;26.00;58.80;;;;;;5030551;28;20022;-72
2022/06/18 11:09:09;;;;;;;6.95;2.58;;;26.00;58.80;;;;;;5031037;28;20027;-72
2022/06/18 11:11:38;;;;;;;5.72;2.20;;;26.00;59.80;;;;;;5047030;28;20107;-72
2022/06/18 11:14:14;;;;;;;7.32;2.15;;;26.00;58.80;;;;;;5052110;28;20029;-72
2022/06/18 11:16:44;;;;;;;5.45;2.20;;;26.00;58.70;;;;;;5051150;28;20384;-72
2022/06/18 11:19:26;;;;;;;7.15;2.58;;;26.00;58.80;;;;;;5052007;28;20017;-72
2022/06/18 11:21:52;;;;;;;6.22;2.28;;;26.00;58.80;;;;;;5050660;28;20095;-72
2022/06/18 11:24:21;;;;;;;5.45;2.50;;;26.00;58.70;;;;;;5034219;28;20052;-72
2022/06/18 11:26:50;;;;;;;5.10;2.05;;;26.00;58.60;;;;;;5051034;28;20043;-72
2022/06/18 11:29:47;;;;;;;3.85;2.15;;;26.00;58.70;;;;;;5052176;28;20057;-72
2022/06/18 11:32:25;;;;;;;6.28;2.13;;;26.00;58.70;;;;;;5051595;28;20529;-72
2022/06/18 11:35:06;;;;;;;5.88;2.58;;;26.00;58.60;;;;;;5050476;28;20095;-72
2022/06/18 11:37:32;;;;;;;6.63;2.20;;;26.00;58.60;;;;;;5036548;28;20021;-72
2022/06/18 11:40:19;;;;;;;4.45;2.03;;;26.00;58.60;;;;;;5071801;28;20418;-72
2022/06/18 11:42:58;;;;;;;4.38;2.08;;;26.00;58.50;;;;;;5054995;28;20032;-72
2022/06/18 11:45:44;;;;;;;4.85;2.20;;;26.00;58.50;;;;;;5071697;28;20490;-72
2022/06/18 11:48:49;;;;;;;4.85;2.25;;;26.00;58.50;;;;;;5071836;28;20100;-72
2022/06/18 11:51:47;;;;;;;4.57;2.20;;;26.00;58.50;;;;;;5069590;28;20041;-72
2022/06/18 11:54:27;;;;;;;4.53;2.10;;;26.00;58.50;;;;;;4970783;28;20086;-72
2022/06/18 11:57:04;;;;;;;5.18;2.10;;;26.00;58.40;;;;;;4970812;28;20042;-72
2022/06/18 11:59:53;;;;;;;6.07;2.13;;;26.00;58.40;;;;;;4955741;28;20039;-72
2022/06/18 12:02:28;;;;;;;2.83;1.80;;;26.00;58.50;;;;;;4955821;28;20121;-72
2022/06/18 12:04:59;;;;;;;5.07;2.13;;;26.00;58.40;;;;;;4938076;29;20074;-72
2022/06/18 12:07:36;;;;;;;3.43;2.10;;;26.00;58.40;;;;;;4951109;29;20119;-72
2022/06/18 12:10:03;;;;;;;2.80;1.98;;;26.00;58.40;;;;;;4951591;29;20545;-72
2022/06/18 12:12:51;;;;;;;4.00;2.20;;;26.00;58.40;;;;;;4935762;29;20095;-72
2022/06/18 12:15:17;;;;;;;4.50;2.03;;;26.00;58.40;;;;;;4937093;29;20184;-72
2022/06/18 12:17:50;;;;;;;3.17;1.90;;;26.00;58.30;;;;;;4952811;28;20047;-72
2022/06/18 12:20:48;;;;;;;5.13;2.55;;;26.00;58.30;;;;;;4939113;29;20038;-72
2022/06/18 12:23:32;;;;;;;5.45;2.30;;;26.00;58.20;;;;;;4954959;29;20031;-72
2022/06/18 12:26:31;;;;;;;4.78;2.33;;;26.00;58.10;;;;;;4954805;29;20043;-72
2022/06/18 12:29:17;;;;;;;5.38;2.08;;;26.00;58.20;;;;;;4966910;28;20034;-72
2022/06/18 12:31:49;;;;;;;7.57;2.60;;;26.00;58.30;;;;;;5013036;28;20396;-72
2022/06/18 12:34:29;;;;;;;4.75;2.50;;;26.00;58.10;;;;;;5033590;28;20067;-72
2022/06/18 12:37:29;;;;;;;5.03;2.20;;;25.90;58.00;;;;;;5018843;28;20025;-72
2022/06/18 12:40:21;;;;;;;4.20;2.30;;;26.00;58.10;;;;;;5034706;28;20505;-72
2022/06/18 12:43:02;;;;;;;3.10;2.13;;;26.00;58.10;;;;;;5033982;28;20087;-72
2022/06/18 12:45:31;;;;;;;4.38;2.30;;;25.90;57.90;;;;;;5017728;28;20642;-72
2022/06/18 12:48:06;;;;;;;6.50;2.50;;;25.90;57.80;;;;;;5033283;28;20025;-72
2022/06/18 12:50:44;;;;;;;5.40;2.45;;;25.90;57.90;;;;;;5034630;28;20100;-72
2022/06/18 12:53:37;;;;;;;8.15;2.22;;;25.90;57.90;;;;;;5017826;28;20033;-72
2022/06/18 12:56:15;;;;;;;5.57;2.40;;;25.90;57.90;;;;;;5034430;28;20018;-72
2022/06/18 12:58:57;;;;;;;3.97;2.65;;;25.90;57.90;;;;;;5034519;28;20036;-72
2022/06/18 13:02:00;;;;;;;5.68;2.47;;;25.90;57.80;;;;;;5034406;28;20025;-72
2022/06/18 13:04:32;;;;;;;4.07;2.00;;;25.90;57.80;;;;;;5034443;28;20032;-72
2022/06/18 13:07:16;;;;;;;4.20;2.30;;;25.90;57.80;;;;;;5034281;28;20025;-72
2022/06/18 13:09:56;;;;;;;4.60;2.47;;;25.90;57.70;;;;;;5033624;28;20396;-72
2022/06/18 13:12:51;;;;;;;3.38;1.98;;;25.90;57.60;;;;;;5052900;28;20521;-72
2022/06/18 13:15:28;;;;;;;5.05;2.70;;;25.90;57.60;;;;;;5051792;28;20037;-72
2022/06/18 13:18:09;;;;;;;4.97;2.42;;;25.90;57.50;;;;;;5035200;28;20021;-72
2022/06/18 13:20:40;;;;;;;4.95;2.20;;;25.90;57.50;;;;;;5035449;28;20171;-72